Time;durP1;ratioP1;P1;durP2;ratioP2;P2;SDS_P1;SDS_P2;PMS_P1;PMS_P2;Temp;Humidity;BMP_temperature;BMP_pressure;BME280_temperature;BME280_humidity;BME280_pressure;Samples;Min_cycle;Max_cycle;Signal;HPM_P1;HPM_P2
2022/09/05 00:01:37;;;;;;;2.77;2.33;;;;;;;;;;5018942;28;20368;-85
2022/09/05 00:04:08;;;;;;;2.50;2.30;;;;;;;;;;5012434;28;20192;-85
2022/09/05 00:06:36;;;;;;;3.50;2.40;;;;;;;;;;5012685;28;20231;-84
2022/09/05 00:09:07;;;;;;;2.37;2.27;;;;;;;;;;5010927;28;20188;-84
2022/09/05 00:11:36;;;;;;;2.47;2.23;;;;;;;;;;5012071;28;20228;-85
2022/09/05 00:14:15;;;;;;;2.87;2.63;;;;;;;;;;5016672;28;20208;-84
2022/09/05 00:16:40;;;;;;;3.13;2.50;;;;;;;;;;5018721;28;20322;-85
2022/09/05 00:19:05;;;;;;;2.60;2.40;;;;;;;;;;5015523;28;20206;-84
2022/09/05 00:21:38;;;;;;;3.70;2.53;;;;;;;;;;5013219;28;20208;-85
2022/09/05 00:24:03;;;;;;;3.23;2.30;;;;;;;;;;5023255;28;20202;-83
2022/09/05 00:26:41;;;;;;;4.50;3.17;;;;;;;;;;5010588;28;20236;-84
2022/09/05 00:29:25;;;;;;;2.40;2.20;;;;;;;;;;5019421;28;20188;-85
2022/09/05 00:32:00;;;;;;;5.07;2.63;;;;;;;;;;5035147;28;20334;-85
2022/09/05 00:34:28;;;;;;;2.80;2.50;;;;;;;;;;5033862;28;20211;-85
2022/09/05 00:36:54;;;;;;;2.70;2.50;;;;;;;;;;5030174;28;20189;-85
2022/09/05 00:39:27;;;;;;;2.97;2.73;;;;;;;;;;5030180;28;20187;-85
2022/09/05 00:41:55;;;;;;;2.70;2.50;;;;;;;;;;5034873;28;20223;-86
2022/09/05 00:44:24;;;;;;;2.50;2.30;;;;;;;;;;5049935;28;20243;-85
2022/09/05 00:46:58;;;;;;;2.80;2.60;;;;;;;;;;5034728;28;20188;-84
2022/09/05 00:49:28;;;;;;;2.50;2.30;;;;;;;;;;5034127;28;20183;-83
2022/09/05 00:52:09;;;;;;;3.17;2.87;;;;;;;;;;5037326;28;20332;-85
2022/09/05 00:54:51;;;;;;;2.77;2.50;;;;;;;;;;5026472;28;20186;-84
2022/09/05 00:57:52;;;;;;;3.17;2.10;;;;;;;;;;5049844;28;20183;-84
2022/09/05 01:00:33;;;;;;;2.77;2.57;;;;;;;;;;4976425;28;20299;-85
2022/09/05 01:03:14;;;;;;;3.60;2.50;;;;;;;;;;5044315;28;20227;-85
2022/09/05 01:05:51;;;;;;;2.83;2.40;;;;;;;;;;5030046;28;20220;-85
2022/09/05 01:08:17;;;;;;;3.07;2.47;;;;;;;;;;5038666;28;20224;-85
2022/09/05 01:10:51;;;;;;;2.63;2.43;;;;;;;;;;5033871;28;20228;-84
2022/09/05 01:13:16;;;;;;;2.60;2.40;;;;;;;;;;5035592;28;20225;-84
2022/09/05 01:16:00;;;;;;;3.13;2.47;;;;;;;;;;5032269;28;20190;-81
2022/09/05 01:18:29;;;;;;;2.83;2.33;;;;;;;;;;5050455;28;20244;-85
2022/09/05 01:21:05;;;;;;;3.23;2.30;;;;;;;;;;5034426;28;20252;-84
2022/09/05 01:23:39;;;;;;;2.50;2.30;;;;;;;;;;5038169;28;20255;-83
2022/09/05 01:26:04;;;;;;;2.63;2.40;;;;;;;;;;5038416;28;20446;-85
2022/09/05 01:28:45;;;;;;;3.20;2.67;;;;;;;;;;5050766;28;20178;-84
2022/09/05 01:31:14;;;;;;;3.27;3.00;;;;;;;;;;5032682;28;20573;-85
2022/09/05 01:33:52;;;;;;;2.43;2.20;;;;;;;;;;5028517;28;20211;-84
2022/09/05 01:36:36;;;;;;;2.80;2.47;;;;;;;;;;5034824;28;20172;-86
2022/09/05 01:39:02;;;;;;;2.90;2.30;;;;;;;;;;5037004;28;20189;-85
2022/09/05 01:41:31;;;;;;;2.47;2.27;;;;;;;;;;5036720;28;20197;-84
2022/09/05 01:44:10;;;;;;;2.73;2.53;;;;;;;;;;5032961;28;20189;-85
2022/09/05 01:46:38;;;;;;;2.87;2.67;;;;;;;;;;5042583;28;20174;-85
2022/09/05 01:49:03;;;;;;;3.83;2.77;;;;;;;;;;5049504;28;20179;-83
2022/09/05 01:51:34;;;;;;;2.97;2.70;;;;;;;;;;5035819;28;20175;-85
2022/09/05 01:54:14;;;;;;;3.10;2.70;;;;;;;;;;5031247;28;20270;-84
2022/09/05 01:56:44;;;;;;;2.97;2.67;;;;;;;;;;5032051;28;20187;-84
2022/09/05 01:59:16;;;;;;;3.60;2.43;;;;;;;;;;5043765;28;20243;-83
2022/09/05 02:01:44;;;;;;;2.70;2.50;;;;;;;;;;5032961;28;20179;-85
2022/09/05 02:04:15;;;;;;;3.00;2.13;;;;;;;;;;5050102;28;20188;-85
2022/09/05 02:06:43;;;;;;;2.77;2.37;;;;;;;;;;5038391;28;20321;-85
2022/09/05 02:09:27;;;;;;;3.00;2.53;;;;;;;;;;5047996;28;20211;-83
2022/09/05 02:11:57;;;;;;;2.87;2.50;;;;;;;;;;5035562;28;20241;-85
2022/09/05 02:14:28;;;;;;;3.00;2.80;;;;;;;;;;5034696;28;20204;-85
2022/09/05 02:16:56;;;;;;;3.17;2.50;;;;;;;;;;5041246;28;20207;-85
2022/09/05 02:19:28;;;;;;;3.43;2.80;;;;;;;;;;5033882;28;20172;-86
2022/09/05 02:21:57;;;;;;;3.37;2.40;;;;;;;;;;5049530;28;20195;-85
2022/09/05 02:24:32;;;;;;;3.33;3.07;;;;;;;;;;5037140;28;20178;-82
2022/09/05 02:26:57;;;;;;;3.57;2.90;;;;;;;;;;5030966;28;20182;-85
2022/09/05 02:29:35;;;;;;;2.60;2.40;;;;;;;;;;5031233;28;20490;-85
2022/09/05 02:32:27;;;;;;;2.80;2.60;;;;;;;;;;5031491;28;20202;-83
2022/09/05 02:35:12;;;;;;;3.63;2.43;;;;;;;;;;5013454;28;20291;-85
2022/09/05 02:37:44;;;;;;;2.70;2.50;;;;;;;;;;5036168;28;20190;-85
2022/09/05 02:40:29;;;;;;;3.13;2.37;;;;;;;;;;5047745;28;20178;-85
2022/09/05 02:43:00;;;;;;;2.50;2.30;;;;;;;;;;5030157;28;20185;-85
2022/09/05 02:45:28;;;;;;;2.30;2.10;;;;;;;;;;5048931;28;20189;-85
2022/09/05 02:48:06;;;;;;;2.27;2.17;;;;;;;;;;5037453;28;20197;-85
2022/09/05 02:50:51;;;;;;;3.97;2.73;;;;;;;;;;5031243;28;20171;-84
2022/09/05 02:53:18;;;;;;;4.00;2.80;;;;;;;;;;5041979;28;20300;-85
2022/09/05 02:56:10;;;;;;;2.87;2.43;;;;;;;;;;5031106;28;20182;-85
2022/09/05 02:58:58;;;;;;;2.80;2.13;;;;;;;;;;5012481;28;20214;-85
2022/09/05 03:01:27;;;;;;;4.63;2.53;;;;;;;;;;5013640;28;20204;-85
2022/09/05 03:04:15;;;;;;;3.20;2.30;;;;;;;;;;5057750;28;20184;-85
2022/09/05 03:06:59;;;;;;;2.30;2.10;;;;;;;;;;5030968;28;20199;-85
2022/09/05 03:09:27;;;;;;;2.77;2.57;;;;;;;;;;5037799;28;20269;-85
2022/09/05 03:12:22;;;;;;;2.40;2.20;;;;;;;;;;5032118;28;20182;-85
2022/09/05 03:15:07;;;;;;;2.87;2.63;;;;;;;;;;5028563;28;20191;-85
2022/09/05 03:17:52;;;;;;;2.87;2.63;;;;;;;;;;5030090;28;20191;-84
2022/09/05 03:20:20;;;;;;;2.90;2.60;;;;;;;;;;5030929;28;20185;-85
2022/09/05 03:23:04;;;;;;;3.50;2.63;;;;;;;;;;5031089;28;20182;-84
2022/09/05 03:25:32;;;;;;;6.77;2.67;;;;;;;;;;5033286;28;20191;-84
2022/09/05 03:28:13;;;;;;;2.53;2.33;;;;;;;;;;5030211;28;20190;-83
2022/09/05 03:30:41;;;;;;;2.77;2.20;;;;;;;;;;5025171;28;20284;-85
2022/09/05 03:33:12;;;;;;;5.20;2.63;;;;;;;;;;5030547;28;20542;-86
2022/09/05 03:35:41;;;;;;;3.40;2.73;;;;;;;;;;5027455;28;20185;-83
2022/09/05 03:38:25;;;;;;;3.23;2.90;;;;;;;;;;5043707;28;20182;-85
2022/09/05 03:40:55;;;;;;;2.63;2.40;;;;;;;;;;5026057;28;20246;-84
2022/09/05 03:43:39;;;;;;;4.53;2.30;;;;;;;;;;5032623;28;20183;-85
2022/09/05 03:46:20;;;;;;;2.90;2.60;;;;;;;;;;5027425;28;20189;-85
2022/09/05 03:48:45;;;;;;;2.53;2.33;;;;;;;;;;5029339;28;20202;-85
2022/09/05 03:51:19;;;;;;;2.70;2.50;;;;;;;;;;5025848;28;20203;-84
2022/09/05 03:54:03;;;;;;;2.30;2.10;;;;;;;;;;5027593;28;20199;-84
2022/09/05 03:56:47;;;;;;;2.73;2.53;;;;;;;;;;5027185;28;20248;-84
2022/09/05 03:59:15;;;;;;;2.60;2.40;;;;;;;;;;5032143;28;20188;-85
2022/09/05 04:01:43;;;;;;;2.60;2.40;;;;;;;;;;5026982;28;20230;-83
2022/09/05 04:04:24;;;;;;;2.93;2.70;;;;;;;;;;5030517;28;20182;-82
2022/09/05 04:06:52;;;;;;;3.00;2.43;;;;;;;;;;5041597;28;20190;-85
2022/09/05 04:09:29;;;;;;;2.50;2.30;;;;;;;;;;5031954;28;20216;-85
2022/09/05 04:11:57;;;;;;;2.57;2.37;;;;;;;;;;5023086;28;20194;-85
2022/09/05 04:14:22;;;;;;;2.87;2.53;;;;;;;;;;5038370;28;20293;-85
2022/09/05 04:16:50;;;;;;;2.87;2.60;;;;;;;;;;5034885;28;20191;-86
2022/09/05 04:19:21;;;;;;;2.27;2.07;;;;;;;;;;5040992;28;20183;-85
2022/09/05 04:21:50;;;;;;;2.50;2.30;;;;;;;;;;5031282;28;20175;-85
2022/09/05 04:24:34;;;;;;;4.63;2.67;;;;;;;;;;5032949;28;20187;-85
2022/09/05 04:26:59;;;;;;;3.03;2.70;;;;;;;;;;5030458;28;20182;-84
2022/09/05 04:29:34;;;;;;;2.90;2.70;;;;;;;;;;5037134;28;20221;-84
2022/09/05 04:32:14;;;;;;;2.80;2.50;;;;;;;;;;5031028;28;20216;-83
2022/09/05 04:34:46;;;;;;;2.97;2.50;;;;;;;;;;5036417;28;20224;-83
2022/09/05 04:37:30;;;;;;;2.57;2.37;;;;;;;;;;5043942;28;20277;-84
2022/09/05 04:39:55;;;;;;;2.70;2.50;;;;;;;;;;5027303;28;20254;-85
2022/09/05 04:42:22;;;;;;;2.50;2.30;;;;;;;;;;5049044;28;20471;-85
2022/09/05 04:44:59;;;;;;;2.40;2.20;;;;;;;;;;5058029;28;20212;-84
2022/09/05 04:47:28;;;;;;;2.53;2.33;;;;;;;;;;5048294;28;20178;-84
2022/09/05 04:50:00;;;;;;;2.73;2.53;;;;;;;;;;5033837;28;20189;-85
2022/09/05 04:52:31;;;;;;;2.73;2.50;;;;;;;;;;5036098;28;20208;-85
2022/09/05 04:55:08;;;;;;;2.77;2.57;;;;;;;;;;5027938;28;20178;-84
2022/09/05 04:57:38;;;;;;;3.50;3.20;;;;;;;;;;5030693;28;20182;-83
2022/09/05 05:00:03;;;;;;;3.00;2.80;;;;;;;;;;5036893;28;20186;-85
2022/09/05 05:02:38;;;;;;;2.50;2.30;;;;;;;;;;5034458;28;20543;-84
2022/09/05 05:05:06;;;;;;;2.83;2.30;;;;;;;;;;5033625;28;20286;-84
2022/09/05 05:07:51;;;;;;;2.93;2.50;;;;;;;;;;5048315;28;20276;-85
2022/09/05 05:10:26;;;;;;;2.83;2.60;;;;;;;;;;5032849;28;20627;-85
2022/09/05 05:12:54;;;;;;;2.87;2.57;;;;;;;;;;5035945;28;20275;-84
2022/09/05 05:15:21;;;;;;;2.80;2.60;;;;;;;;;;5028456;28;20182;-85
2022/09/05 05:18:25;;;;;;;3.03;2.73;;;;;;;;;;5034551;28;20178;-84
2022/09/05 05:20:50;;;;;;;2.83;2.63;;;;;;;;;;4946212;28;20195;-84
2022/09/05 05:23:17;;;;;;;2.93;2.73;;;;;;;;;;4950492;28;20185;-85
2022/09/05 05:25:52;;;;;;;2.77;2.57;;;;;;;;;;5016163;28;20197;-84
2022/09/05 05:28:18;;;;;;;2.83;2.63;;;;;;;;;;5046837;28;20188;-85
2022/09/05 05:30:43;;;;;;;2.90;2.70;;;;;;;;;;5038973;28;20230;-84
2022/09/05 05:33:34;;;;;;;4.10;2.93;;;;;;;;;;5034554;28;20235;-85
2022/09/05 05:36:01;;;;;;;2.77;2.57;;;;;;;;;;5027056;28;20197;-84
2022/09/05 05:38:38;;;;;;;2.50;2.30;;;;;;;;;;5040039;28;20192;-85
2022/09/05 05:41:04;;;;;;;3.67;2.70;;;;;;;;;;5045697;28;20174;-85
2022/09/05 05:43:40;;;;;;;2.97;2.40;;;;;;;;;;5053142;28;20209;-85
2022/09/05 05:46:05;;;;;;;3.00;2.70;;;;;;;;;;5037300;28;20234;-84
2022/09/05 05:48:34;;;;;;;2.90;2.70;;;;;;;;;;5030925;28;20187;-85
2022/09/05 05:51:02;;;;;;;2.83;2.43;;;;;;;;;;5038575;28;20185;-83
2022/09/05 05:53:47;;;;;;;3.77;2.90;;;;;;;;;;5029316;28;20218;-85
2022/09/05 05:56:31;;;;;;;3.00;2.47;;;;;;;;;;5039778;28;20206;-85
2022/09/05 05:59:05;;;;;;;2.70;2.50;;;;;;;;;;5034346;28;20182;-85
2022/09/05 06:01:49;;;;;;;2.70;2.50;;;;;;;;;;5032947;28;20184;-86
2022/09/05 06:04:33;;;;;;;2.60;2.40;;;;;;;;;;5032237;28;20190;-86
2022/09/05 06:06:59;;;;;;;2.57;2.40;;;;;;;;;;5028263;28;20238;-85
2022/09/05 06:09:24;;;;;;;2.53;2.33;;;;;;;;;;5032668;28;20199;-85
2022/09/05 06:11:55;;;;;;;2.63;2.43;;;;;;;;;;5036819;28;20188;-86
2022/09/05 06:14:40;;;;;;;4.00;2.93;;;;;;;;;;5048388;28;20207;-85
2022/09/05 06:17:17;;;;;;;2.73;2.53;;;;;;;;;;5048827;28;20183;-81
2022/09/05 06:19:46;;;;;;;2.80;2.60;;;;;;;;;;5041550;28;20208;-85
2022/09/05 06:22:11;;;;;;;5.90;3.37;;;;;;;;;;5029869;28;20198;-85
2022/09/05 06:24:45;;;;;;;2.57;2.03;;;;;;;;;;5037534;28;20177;-85
2022/09/05 06:27:10;;;;;;;3.67;2.50;;;;;;;;;;5033822;28;20247;-85
2022/09/05 06:29:48;;;;;;;4.00;2.83;;;;;;;;;;5035226;28;20227;-87
2022/09/05 06:32:34;;;;;;;3.07;2.67;;;;;;;;;;5032469;28;20192;-86
2022/09/05 06:35:22;;;;;;;2.37;2.20;;;;;;;;;;5050834;28;20210;-82
2022/09/05 06:37:58;;;;;;;2.60;2.40;;;;;;;;;;5014115;28;20194;-85
2022/09/05 06:40:31;;;;;;;2.67;2.47;;;;;;;;;;5030401;28;20239;-84
2022/09/05 06:43:03;;;;;;;3.50;2.57;;;;;;;;;;5042838;28;20186;-85
2022/09/05 06:45:48;;;;;;;3.10;2.90;;;;;;;;;;5029121;28;20222;-86
2022/09/05 06:48:25;;;;;;;2.57;2.37;;;;;;;;;;5034885;28;20189;-86
2022/09/05 06:50:53;;;;;;;3.30;2.70;;;;;;;;;;5031214;28;20419;-86
2022/09/05 06:53:34;;;;;;;2.77;2.50;;;;;;;;;;5032190;28;20215;-84
2022/09/05 06:56:15;;;;;;;3.57;2.67;;;;;;;;;;5027383;28;20177;-86
2022/09/05 06:59:10;;;;;;;3.57;2.30;;;;;;;;;;5037869;28;20203;-85
2022/09/05 07:01:44;;;;;;;3.13;2.37;;;;;;;;;;5037545;28;20231;-85
2022/09/05 07:04:16;;;;;;;2.73;2.53;;;;;;;;;;5056395;28;20189;-84
2022/09/05 07:06:45;;;;;;;2.97;2.60;;;;;;;;;;5032578;28;20185;-84
2022/09/05 07:09:20;;;;;;;2.70;2.50;;;;;;;;;;5032431;28;20186;-85
2022/09/05 07:11:49;;;;;;;2.47;2.27;;;;;;;;;;5032043;28;20207;-85
2022/09/05 07:14:23;;;;;;;2.60;2.40;;;;;;;;;;5032961;28;20243;-85
2022/09/05 07:16:55;;;;;;;2.43;2.23;;;;;;;;;;5033468;28;20337;-86
2022/09/05 07:19:28;;;;;;;2.67;2.47;;;;;;;;;;5041549;28;20174;-84
2022/09/05 07:22:13;;;;;;;3.00;2.80;;;;;;;;;;5028229;28;20176;-82
2022/09/05 07:24:41;;;;;;;2.77;2.37;;;;;;;;;;5026805;28;20184;-86
2022/09/05 07:27:09;;;;;;;3.53;2.70;;;;;;;;;;5033762;28;20191;-77
2022/09/05 07:29:36;;;;;;;5.10;2.33;;;;;;;;;;5048732;28;20233;-75
2022/09/05 07:32:06;;;;;;;2.70;2.50;;;;;;;;;;5036008;28;20190;-75
2022/09/05 07:34:33;;;;;;;2.87;2.47;;;;;;;;;;5046231;28;20239;-76
2022/09/05 07:37:05;;;;;;;5.17;2.47;;;;;;;;;;5046618;28;20181;-75
2022/09/05 07:39:34;;;;;;;2.60;2.40;;;;;;;;;;5049602;28;20185;-75
2022/09/05 07:42:04;;;;;;;2.60;2.40;;;;;;;;;;5033568;28;20186;-75
2022/09/05 07:44:32;;;;;;;2.43;2.17;;;;;;;;;;5054932;28;20260;-75
2022/09/05 07:47:06;;;;;;;5.47;2.40;;;;;;;;;;5049129;28;20184;-86
2022/09/05 07:49:34;;;;;;;2.43;2.23;;;;;;;;;;5016318;28;20188;-75
2022/09/05 07:52:00;;;;;;;2.30;2.20;;;;;;;;;;5042765;28;20188;-75
2022/09/05 07:54:31;;;;;;;5.60;2.67;;;;;;;;;;5065326;28;20420;-75
2022/09/05 07:57:02;;;;;;;2.90;2.67;;;;;;;;;;5051850;28;20187;-75
2022/09/05 07:59:29;;;;;;;5.57;2.50;;;;;;;;;;5038642;28;20327;-75
2022/09/05 08:01:55;;;;;;;3.27;2.23;;;;;;;;;;5041810;28;20310;-75
2022/09/05 08:04:24;;;;;;;3.13;2.67;;;;;;;;;;5050412;28;20274;-75
2022/09/05 08:06:53;;;;;;;2.73;2.53;;;;;;;;;;5030030;28;20177;-75
2022/09/05 08:09:24;;;;;;;3.23;2.80;;;;;;;;;;5043111;28;20189;-75
2022/09/05 08:11:50;;;;;;;3.70;2.40;;;;;;;;;;5033240;28;20270;-75
2022/09/05 08:14:29;;;;;;;3.00;2.33;;;;;;;;;;5037086;28;20270;-75
2022/09/05 08:16:55;;;;;;;2.40;2.30;;;;;;;;;;5051333;28;20183;-75
2022/09/05 08:19:43;;;;;;;2.60;2.27;;;;;;;;;;5054468;28;20178;-75
2022/09/05 08:22:12;;;;;;;2.70;2.10;;;;;;;;;;5055400;28;20280;-75
2022/09/05 08:24:45;;;;;;;3.20;2.57;;;;;;;;;;5040555;28;20188;-75
2022/09/05 08:27:19;;;;;;;3.67;2.80;;;;;;;;;;5036814;28;20185;-73
2022/09/05 08:29:52;;;;;;;2.50;2.30;;;;;;;;;;5027138;28;20228;-73
2022/09/05 08:32:24;;;;;;;2.63;2.43;;;;;;;;;;5034736;28;20172;-73
2022/09/05 08:34:57;;;;;;;3.13;2.83;;;;;;;;;;5006913;28;20238;-73
2022/09/05 08:37:24;;;;;;;2.70;2.50;;;;;;;;;;5012157;28;20189;-73
2022/09/05 08:39:52;;;;;;;3.20;2.63;;;;;;;;;;5008932;28;20181;-73
2022/09/05 08:42:26;;;;;;;3.83;2.70;;;;;;;;;;5008340;28;20243;-73
2022/09/05 08:45:10;;;;;;;3.00;2.70;;;;;;;;;;5011963;28;20181;-73
2022/09/05 08:47:53;;;;;;;2.60;2.40;;;;;;;;;;5007269;28;20231;-73
2022/09/05 08:50:31;;;;;;;3.70;3.40;;;;;;;;;;5021342;28;20261;-73
2022/09/05 08:52:56;;;;;;;4.50;4.10;;;;;;;;;;5021351;28;20209;-73
2022/09/05 08:55:28;;;;;;;3.03;2.73;;;;;;;;;;5029207;28;20186;-73
2022/09/05 08:57:59;;;;;;;6.27;5.60;;;;;;;;;;5011847;28;20175;-73
2022/09/05 09:00:28;;;;;;;2.80;2.60;;;;;;;;;;5010014;28;20178;-73
2022/09/05 09:03:16;;;;;;;4.53;3.47;;;;;;;;;;5013841;28;20192;-73
2022/09/05 09:05:47;;;;;;;3.13;2.93;;;;;;;;;;5011117;28;20327;-73
2022/09/05 09:08:21;;;;;;;3.37;2.80;;;;;;;;;;5014310;28;20182;-73
2022/09/05 09:10:59;;;;;;;3.03;2.83;;;;;;;;;;5014103;28;20186;-73
2022/09/05 09:13:51;;;;;;;3.30;3.00;;;;;;;;;;5018900;28;20229;-73
2022/09/05 09:16:34;;;;;;;4.53;2.60;;;;;;;;;;5012547;28;20214;-73
2022/09/05 09:19:04;;;;;;;2.87;2.67;;;;;;;;;;5017488;28;20184;-73
2022/09/05 09:21:29;;;;;;;3.53;2.70;;;;;;;;;;5008021;28;20255;-73
2022/09/05 09:24:16;;;;;;;3.47;2.83;;;;;;;;;;5009931;28;20219;-73
2022/09/05 09:26:48;;;;;;;6.40;2.93;;;;;;;;;;5003743;28;20182;-73
2022/09/05 09:29:16;;;;;;;3.50;3.20;;;;;;;;;;5013963;28;20187;-73
2022/09/05 09:32:00;;;;;;;3.10;2.80;;;;;;;;;;5052129;28;20192;-73
2022/09/05 09:34:25;;;;;;;4.03;2.60;;;;;;;;;;5049193;28;20205;-73
2022/09/05 09:37:14;;;;;;;2.73;2.53;;;;;;;;;;5033770;28;20184;-73
2022/09/05 09:39:54;;;;;;;3.00;2.67;;;;;;;;;;5028092;28;20186;-73
2022/09/05 09:42:28;;;;;;;3.03;2.83;;;;;;;;;;5052283;28;20187;-73
2022/09/05 09:45:07;;;;;;;3.10;2.80;;;;;;;;;;5027808;28;20181;-73
2022/09/05 09:47:42;;;;;;;2.97;2.77;;;;;;;;;;5033270;28;20187;-73
2022/09/05 09:50:13;;;;;;;3.27;2.90;;;;;;;;;;5034087;28;20216;-73
2022/09/05 09:53:17;;;;;;;3.27;2.93;;;;;;;;;;5033157;28;20182;-73
2022/09/05 09:56:00;;;;;;;2.73;2.50;;;;;;;;;;4986004;28;20193;-73
2022/09/05 09:58:25;;;;;;;3.47;2.90;;;;;;;;;;4978209;28;20196;-73
2022/09/05 10:00:53;;;;;;;2.90;2.67;;;;;;;;;;4973286;28;20190;-73
2022/09/05 10:03:22;;;;;;;2.97;2.70;;;;;;;;;;4989150;28;20183;-73
2022/09/05 10:06:05;;;;;;;3.17;2.70;;;;;;;;;;4969638;28;20190;-73
2022/09/05 10:08:39;;;;;;;2.73;2.53;;;;;;;;;;4972141;28;20192;-73
2022/09/05 10:11:18;;;;;;;5.17;2.97;;;;;;;;;;4989536;28;20179;-73
2022/09/05 10:13:46;;;;;;;3.20;3.00;;;;;;;;;;4964039;28;20208;-73
2022/09/05 10:16:30;;;;;;;6.50;3.07;;;;;;;;;;4988070;28;20195;-74
2022/09/05 10:19:14;;;;;;;7.43;3.10;;;;;;;;;;4984190;28;20188;-73
2022/09/05 10:22:12;;;;;;;3.08;2.88;;;;;;;;;;4986147;28;20248;-73
2022/09/05 10:24:40;;;;;;;3.40;3.10;;;;;;;;;;4949038;28;20195;-73
2022/09/05 10:27:28;;;;;;;3.03;2.73;;;;;;;;;;5033327;28;20205;-73
2022/09/05 10:30:05;;;;;;;3.85;3.42;;;;;;;;;;5044403;28;20256;-73
2022/09/05 10:32:54;;;;;;;2.92;2.72;;;;;;;;;;5040406;28;20208;-73
2022/09/05 10:35:25;;;;;;;3.97;2.90;;;;;;;;;;5038529;28;20196;-73
2022/09/05 10:37:56;;;;;;;3.53;2.77;;;;;;;;;;5033500;28;20279;-73
2022/09/05 10:40:22;;;;;;;7.40;3.03;;;;;;;;;;5032292;28;20289;-73
2022/09/05 10:42:58;;;;;;;6.03;3.30;;;;;;;;;;5051074;28;20193;-73
2022/09/05 10:45:33;;;;;;;3.20;2.90;;;;;;;;;;5047513;28;20189;-73
2022/09/05 10:47:58;;;;;;;3.08;2.80;;;;;;;;;;5034424;28;20191;-73
2022/09/05 10:50:23;;;;;;;3.17;2.97;;;;;;;;;;5051373;28;20351;-73
2022/09/05 10:52:48;;;;;;;2.90;2.70;;;;;;;;;;5051808;28;20230;-73
2022/09/05 10:55:21;;;;;;;3.50;3.23;;;;;;;;;;5059065;28;20178;-73
2022/09/05 10:57:56;;;;;;;3.30;3.00;;;;;;;;;;5049931;28;20427;-73
2022/09/05 11:00:42;;;;;;;6.10;2.92;;;;;;;;;;5049164;28;20182;-73
2022/09/05 11:03:12;;;;;;;4.20;2.78;;;;;;;;;;5047000;28;20227;-73
2022/09/05 11:05:38;;;;;;;4.53;3.17;;;;;;;;;;5033057;28;20178;-73
2022/09/05 11:08:10;;;;;;;4.13;3.05;;;;;;;;;;5028524;28;20175;-73
2022/09/05 11:10:46;;;;;;;4.10;3.00;;;;;;;;;;5052745;28;20177;-73
2022/09/05 11:13:13;;;;;;;2.70;2.50;;;;;;;;;;5037418;28;20209;-73
2022/09/05 11:15:50;;;;;;;4.47;2.90;;;;;;;;;;5049180;28;20178;-73
2022/09/05 11:18:21;;;;;;;3.38;3.10;;;;;;;;;;5034553;28;20178;-73
2022/09/05 11:21:02;;;;;;;3.03;2.80;;;;;;;;;;5038182;28;20186;-73
2022/09/05 11:23:35;;;;;;;3.55;3.25;;;;;;;;;;5048224;28;20189;-73
2022/09/05 11:26:05;;;;;;;3.63;3.13;;;;;;;;;;5049885;28;20237;-73
2022/09/05 11:28:42;;;;;;;3.42;3.00;;;;;;;;;;5031464;28;21667;-73
2022/09/05 11:31:11;;;;;;;3.92;3.42;;;;;;;;;;5015901;28;20723;-73
2022/09/05 11:33:54;;;;;;;3.15;2.85;;;;;;;;;;5012932;28;20231;-73
2022/09/05 11:36:23;;;;;;;3.85;3.15;;;;;;;;;;5010756;28;20179;-73
2022/09/05 11:38:48;;;;;;;4.20;3.00;;;;;;;;;;5010756;28;20231;-73
2022/09/05 11:41:32;;;;;;;5.60;3.33;;;;;;;;;;5013847;28;20176;-73
2022/09/05 11:44:13;;;;;;;3.05;2.83;;;;;;;;;;5018179;28;20274;-73
2022/09/05 11:46:45;;;;;;;4.00;2.78;;;;;;;;;;5022249;28;20171;-73
2022/09/05 11:49:30;;;;;;;3.70;3.25;;;;;;;;;;5014436;28;20270;-73
2022/09/05 11:51:59;;;;;;;3.35;3.05;;;;;;;;;;5013914;28;20179;-73
2022/09/05 11:54:36;;;;;;;2.78;2.58;;;;;;;;;;5016772;28;20211;-73
2022/09/05 11:57:30;;;;;;;3.08;2.88;;;;;;;;;;5012758;28;20179;-73
2022/09/05 12:00:16;;;;;;;5.50;2.90;;;;;;;;;;4973520;28;20194;-73
2022/09/05 12:02:56;;;;;;;3.70;3.00;;;;;;;;;;5006834;28;20220;-74
2022/09/05 12:05:40;;;;;;;4.10;2.90;;;;;;;;;;5015722;28;20175;-73
2022/09/05 12:08:16;;;;;;;4.80;4.10;;;;;;;;;;5018112;28;20172;-73
2022/09/05 12:10:57;;;;;;;3.65;2.83;;;;;;;;;;5016263;28;20183;-73
2022/09/05 12:13:45;;;;;;;3.50;3.20;;;;;;;;;;5011437;28;20219;-74
2022/09/05 12:16:19;;;;;;;3.42;3.13;;;;;;;;;;5012377;28;20221;-73
2022/09/05 12:19:03;;;;;;;3.08;2.78;;;;;;;;;;5011828;28;20179;-73
2022/09/05 12:21:36;;;;;;;6.45;3.30;;;;;;;;;;5009446;28;20171;-74
2022/09/05 12:24:04;;;;;;;3.22;3.00;;;;;;;;;;5015289;28;21703;-74
2022/09/05 12:26:42;;;;;;;3.38;3.15;;;;;;;;;;5014979;28;20179;-74
2022/09/05 12:29:09;;;;;;;3.30;2.72;;;;;;;;;;5025534;28;20175;-74
2022/09/05 12:31:35;;;;;;;2.85;2.65;;;;;;;;;;5054967;28;20253;-73
2022/09/05 12:34:02;;;;;;;2.72;2.53;;;;;;;;;;5032699;28;20222;-73
2022/09/05 12:36:47;;;;;;;3.45;2.83;;;;;;;;;;5050495;28;20184;-74
2022/09/05 12:39:33;;;;;;;5.00;3.25;;;;;;;;;;5042568;28;20288;-74
2022/09/05 12:41:59;;;;;;;2.65;2.45;;;;;;;;;;5037805;28;20193;-74
2022/09/05 12:44:42;;;;;;;2.90;2.70;;;;;;;;;;5058511;28;20178;-73
2022/09/05 12:47:09;;;;;;;3.10;2.90;;;;;;;;;;5053224;28;20178;-74
2022/09/05 12:49:55;;;;;;;3.15;2.85;;;;;;;;;;5042930;28;20189;-73
2022/09/05 12:52:42;;;;;;;3.38;2.85;;;;;;;;;;5050754;28;20268;-74
2022/09/05 12:55:16;;;;;;;3.17;2.78;;;;;;;;;;5039895;28;20194;-74
2022/09/05 12:57:42;;;;;;;3.22;2.92;;;;;;;;;;5027071;28;20185;-74
2022/09/05 13:00:12;;;;;;;3.33;3.13;;;;;;;;;;5037169;28;20220;-74
2022/09/05 13:02:39;;;;;;;2.95;2.75;;;;;;;;;;5052204;28;20232;-74
2022/09/05 13:05:21;;;;;;;3.03;2.83;;;;;;;;;;5037110;28;20189;-74
2022/09/05 13:07:51;;;;;;;3.08;2.83;;;;;;;;;;5055123;28;20193;-74
2022/09/05 13:10:36;;;;;;;2.92;2.70;;;;;;;;;;5053939;28;20197;-73
2022/09/05 13:13:05;;;;;;;3.80;3.40;;;;;;;;;;5040658;28;20203;-74
2022/09/05 13:15:37;;;;;;;2.90;2.70;;;;;;;;;;5035089;28;20190;-74
2022/09/05 13:18:09;;;;;;;3.50;3.25;;;;;;;;;;5036936;28;20174;-74
2022/09/05 13:20:38;;;;;;;2.92;2.72;;;;;;;;;;5038613;28;20185;-74
2022/09/05 13:23:21;;;;;;;2.90;2.70;;;;;;;;;;5032216;28;20193;-74
2022/09/05 13:25:55;;;;;;;2.92;2.63;;;;;;;;;;5030462;28;20178;-74
2022/09/05 13:28:24;;;;;;;4.05;2.80;;;;;;;;;;5034774;28;20181;-74
2022/09/05 13:30:57;;;;;;;4.20;3.22;;;;;;;;;;5045364;28;20232;-74
2022/09/05 13:33:34;;;;;;;3.15;2.80;;;;;;;;;;5050251;28;20281;-74
2022/09/05 13:36:04;;;;;;;2.80;2.60;;;;;;;;;;5031374;28;20174;-74
2022/09/05 13:38:58;;;;;;;3.88;2.70;;;;;;;;;;5041523;28;20511;-74
2022/09/05 13:41:32;;;;;;;3.20;2.90;;;;;;;;;;5033405;28;20186;-73
2022/09/05 13:44:00;;;;;;;4.95;3.10;;;;;;;;;;5049743;28;20273;-73
2022/09/05 13:46:28;;;;;;;3.17;2.90;;;;;;;;;;5033570;28;20196;-73
2022/09/05 13:49:12;;;;;;;3.67;3.22;;;;;;;;;;5048527;28;21282;-73
2022/09/05 13:51:40;;;;;;;3.38;3.17;;;;;;;;;;5049500;28;20238;-73
2022/09/05 13:54:09;;;;;;;3.15;2.95;;;;;;;;;;5036998;28;20221;-73
2022/09/05 13:56:40;;;;;;;3.33;2.85;;;;;;;;;;5039247;28;20166;-73
2022/09/05 13:59:10;;;;;;;3.40;3.13;;;;;;;;;;5049641;28;20189;-73
2022/09/05 14:01:39;;;;;;;3.35;3.15;;;;;;;;;;5041174;28;20180;-73
2022/09/05 14:04:13;;;;;;;4.20;3.30;;;;;;;;;;5050659;28;20206;-73
2022/09/05 14:06:57;;;;;;;3.13;2.80;;;;;;;;;;5058639;28;20227;-73
2022/09/05 14:09:47;;;;;;;3.40;3.05;;;;;;;;;;5033977;28;20174;-73
2022/09/05 14:12:28;;;;;;;3.58;2.90;;;;;;;;;;5032703;28;20213;-73
2022/09/05 14:15:19;;;;;;;3.60;3.30;;;;;;;;;;5037788;28;20213;-73
2022/09/05 14:17:57;;;;;;;3.92;2.83;;;;;;;;;;5011394;28;20222;-73
2022/09/05 14:23:09;;;;;;;3.75;3.13;;;;;;;;;;5047444;28;20216;-73
2022/09/05 14:25:37;;;;;;;3.30;3.10;;;;;;;;;;5053333;28;20174;-73
2022/09/05 14:28:04;;;;;;;3.58;3.20;;;;;;;;;;5031528;28;20210;-73
2022/09/05 14:30:32;;;;;;;2.97;2.45;;;;;;;;;;5018393;28;20285;-73
2022/09/05 14:33:06;;;;;;;5.40;3.30;;;;;;;;;;5009405;28;20290;-73
2022/09/05 14:35:36;;;;;;;3.70;3.15;;;;;;;;;;5007404;28;20204;-73
2022/09/05 14:38:09;;;;;;;4.45;3.00;;;;;;;;;;5012469;28;20172;-73
2022/09/05 14:40:48;;;;;;;3.50;3.30;;;;;;;;;;5010123;28;20179;-73
2022/09/05 14:43:32;;;;;;;3.20;2.80;;;;;;;;;;5018392;28;20250;-73
2022/09/05 14:46:20;;;;;;;3.13;2.92;;;;;;;;;;5016320;28;20335;-73
2022/09/05 14:48:45;;;;;;;3.42;3.13;;;;;;;;;;5011104;28;20179;-73
2022/09/05 14:51:22;;;;;;;3.25;2.75;;;;;;;;;;5014467;28;20275;-73
2022/09/05 14:53:59;;;;;;;3.20;2.90;;;;;;;;;;5016543;28;20233;-73
2022/09/05 14:56:45;;;;;;;4.88;3.00;;;;;;;;;;5015334;28;20237;-73
2022/09/05 14:59:15;;;;;;;8.23;2.80;;;;;;;;;;5008998;28;20195;-73
2022/09/05 15:01:59;;;;;;;3.20;2.90;;;;;;;;;;5017833;28;20480;-73
2022/09/05 15:04:27;;;;;;;9.25;3.22;;;;;;;;;;5011692;28;20187;-73
2022/09/05 15:07:13;;;;;;;4.35;3.47;;;;;;;;;;5006365;28;20187;-73
2022/09/05 15:09:38;;;;;;;6.15;4.30;;;;;;;;;;5010588;28;20182;-73
2022/09/05 15:12:13;;;;;;;3.40;3.20;;;;;;;;;;5019749;28;20187;-73
2022/09/05 15:14:40;;;;;;;3.50;3.20;;;;;;;;;;5014023;28;20257;-73
2022/09/05 15:17:05;;;;;;;6.70;3.97;;;;;;;;;;5013832;28;20183;-73
2022/09/05 15:19:45;;;;;;;3.53;3.20;;;;;;;;;;5006790;28;20309;-73
2022/09/05 15:22:25;;;;;;;3.50;3.13;;;;;;;;;;5002022;28;20205;-73
2022/09/05 15:25:00;;;;;;;4.47;3.28;;;;;;;;;;5005788;28;20183;-73
2022/09/05 15:27:28;;;;;;;6.55;3.00;;;;;;;;;;5013158;28;20265;-73
2022/09/05 15:29:54;;;;;;;4.30;3.05;;;;;;;;;;5029926;28;20290;-73